createdAt,value
2023-05-09T00:01:37.380Z,20.10
2023-05-09T00:04:05.049Z,20.10
2023-05-09T00:06:32.661Z,20.10
2023-05-09T00:09:00.284Z,20.10
2023-05-09T00:11:48.737Z,20.10
2023-05-09T00:14:16.148Z,20.10
2023-05-09T00:16:44.637Z,20.10
2023-05-09T00:19:13.271Z,20.10
2023-05-09T00:21:40.752Z,20.20
2023-05-09T00:24:08.287Z,20.10
2023-05-09T00:26:54.335Z,20.10
2023-05-09T00:29:42.930Z,20.10
2023-05-09T00:32:11.076Z,20.10
2023-05-09T00:34:38.431Z,20.10
2023-05-09T00:37:06.502Z,20.10
2023-05-09T00:39:33.754Z,20.10
2023-05-09T00:42:01.103Z,20.10
2023-05-09T00:44:28.400Z,20.10
2023-05-09T00:46:55.874Z,20.00
2023-05-09T00:49:23.218Z,20.00
2023-05-09T00:51:51.076Z,20.00
2023-05-09T00:54:18.685Z,20.00
2023-05-09T00:56:46.323Z,20.00
2023-05-09T00:59:17.554Z,20.00
2023-05-09T01:01:46.287Z,20.00
2023-05-09T01:04:15.627Z,20.00
2023-05-09T01:07:18.403Z,20.00
2023-05-09T01:10:19.276Z,20.00
2023-05-09T01:13:07.418Z,20.00
2023-05-09T01:15:49.651Z,20.00
2023-05-09T01:18:56.403Z,19.90
2023-05-09T01:21:33.537Z,20.00
2023-05-09T01:24:48.238Z,19.90
2023-05-09T01:27:45.362Z,19.90
2023-05-09T01:30:14.376Z,19.90
2023-05-09T01:32:44.189Z,19.90
2023-05-09T01:35:51.526Z,19.90
2023-05-09T01:38:24.182Z,19.90
2023-05-09T01:40:57.239Z,19.90
2023-05-09T01:43:29.501Z,19.90
2023-05-09T01:45:59.558Z,19.90
2023-05-09T01:48:31.049Z,19.90
2023-05-09T01:51:01.473Z,19.90
2023-05-09T01:53:33.772Z,19.90
2023-05-09T01:56:04.341Z,19.90
2023-05-09T01:58:34.268Z,19.90
2023-05-09T02:01:03.466Z,19.90
2023-05-09T02:03:55.374Z,19.80
2023-05-09T02:06:24.963Z,19.90
2023-05-09T02:08:52.636Z,19.90
2023-05-09T02:11:20.090Z,19.90
2023-05-09T02:13:47.485Z,19.90
2023-05-09T02:16:15.502Z,19.90
2023-05-09T02:18:42.807Z,19.90
2023-05-09T02:21:10.242Z,19.90
2023-05-09T02:23:40.066Z,19.80
2023-05-09T02:26:07.480Z,19.90
2023-05-09T02:28:36.340Z,19.80
2023-05-09T02:31:08.617Z,19.90
2023-05-09T02:33:58.334Z,19.90
2023-05-09T02:36:26.126Z,19.90
2023-05-09T02:38:54.054Z,19.80
2023-05-09T02:41:22.045Z,19.90
2023-05-09T02:43:49.392Z,19.80
2023-05-09T02:46:16.814Z,19.90
2023-05-09T02:49:02.888Z,19.90
2023-05-09T02:51:30.195Z,19.80
2023-05-09T02:53:57.877Z,19.80
2023-05-09T02:56:25.104Z,19.80
2023-05-09T02:58:52.549Z,19.80
2023-05-09T03:01:19.944Z,19.80
2023-05-09T03:03:47.317Z,19.80
2023-05-09T03:06:14.779Z,19.80
2023-05-09T03:08:41.977Z,19.80
2023-05-09T03:11:09.222Z,19.80
2023-05-09T03:13:36.444Z,19.80
2023-05-09T03:16:03.920Z,19.80
2023-05-09T03:18:31.225Z,19.80
2023-05-09T03:20:58.580Z,19.80
2023-05-09T03:23:25.811Z,19.80
2023-05-09T03:25:53.099Z,19.80
2023-05-09T03:28:20.311Z,19.80
2023-05-09T03:30:47.559Z,19.70
2023-05-09T03:33:14.897Z,19.70
2023-05-09T03:35:42.178Z,19.70
2023-05-09T03:38:10.073Z,19.70
2023-05-09T03:40:38.113Z,19.70
2023-05-09T03:43:06.843Z,19.70
2023-05-09T03:45:36.276Z,19.70
2023-05-09T03:48:05.501Z,19.70
2023-05-09T03:50:33.058Z,19.60
2023-05-09T03:53:00.568Z,19.70
2023-05-09T03:55:27.925Z,19.70
2023-05-09T03:57:56.060Z,19.60
2023-05-09T04:00:24.498Z,19.60
2023-05-09T04:02:51.997Z,19.60
2023-05-09T04:05:19.559Z,19.60
2023-05-09T04:07:46.927Z,19.60
2023-05-09T04:10:14.274Z,19.60
2023-05-09T04:12:41.652Z,19.60
2023-05-09T04:15:10.174Z,19.60
2023-05-09T04:17:37.539Z,19.60
2023-05-09T04:20:06.828Z,19.60
2023-05-09T04:22:34.202Z,19.50
2023-05-09T04:25:01.338Z,19.50
2023-05-09T04:27:28.562Z,19.50
2023-05-09T04:29:55.883Z,19.50
2023-05-09T04:32:23.506Z,19.50
2023-05-09T04:34:50.836Z,19.50
2023-05-09T04:37:18.524Z,19.50
2023-05-09T04:39:45.831Z,19.50
2023-05-09T04:42:13.248Z,19.50
2023-05-09T04:44:40.801Z,19.50
2023-05-09T04:47:07.918Z,19.50
2023-05-09T04:49:35.176Z,19.50
2023-05-09T04:52:05.635Z,19.50
2023-05-09T04:54:33.053Z,19.50
2023-05-09T04:57:09.837Z,19.60
2023-05-09T04:59:44.173Z,19.60
2023-05-09T05:02:11.377Z,19.60
2023-05-09T05:04:41.652Z,19.60
2023-05-09T05:07:08.910Z,19.60
2023-05-09T05:10:35.489Z,19.60
2023-05-09T05:13:02.899Z,19.60
2023-05-09T05:15:30.219Z,19.60
2023-05-09T05:17:57.502Z,19.60
2023-05-09T05:20:25.013Z,19.70
2023-05-09T05:22:52.151Z,19.70
2023-05-09T05:25:19.422Z,19.70
2023-05-09T05:27:46.868Z,19.80
2023-05-09T05:30:15.967Z,19.80
2023-05-09T05:32:44.185Z,19.90
2023-05-09T05:35:12.188Z,20.00
2023-05-09T05:37:41.129Z,20.10
2023-05-09T05:40:09.524Z,20.10
2023-05-09T05:42:37.104Z,20.20
2023-05-09T05:45:04.890Z,20.30
2023-05-09T05:47:36.130Z,20.30
2023-05-09T05:50:12.244Z,20.40
2023-05-09T05:52:41.697Z,20.40
2023-05-09T05:55:09.439Z,20.50
2023-05-09T05:57:39.794Z,20.60
2023-05-09T06:00:14.943Z,20.60
2023-05-09T06:02:45.715Z,20.70
2023-05-09T06:05:13.377Z,20.70
2023-05-09T06:07:44.442Z,20.80
2023-05-09T06:10:12.000Z,20.90
2023-05-09T06:12:39.344Z,20.90
2023-05-09T06:15:07.499Z,20.90
2023-05-09T06:17:35.391Z,21.00
2023-05-09T06:20:06.176Z,21.10
2023-05-09T06:22:33.562Z,21.10
2023-05-09T06:25:01.288Z,21.20
2023-05-09T06:27:28.497Z,21.20
2023-05-09T06:29:55.755Z,21.30
2023-05-09T06:32:23.724Z,21.30
2023-05-09T06:34:51.172Z,21.30
2023-05-09T06:37:18.865Z,21.30
2023-05-09T06:39:46.543Z,21.40
2023-05-09T06:42:13.797Z,21.40
2023-05-09T06:44:41.489Z,21.40
2023-05-09T06:47:08.815Z,21.50
2023-05-09T06:49:36.212Z,21.60
2023-05-09T06:52:03.582Z,21.60
2023-05-09T06:54:31.975Z,21.70
2023-05-09T06:57:00.116Z,21.70
2023-05-09T06:59:28.029Z,21.80
2023-05-09T07:01:56.045Z,21.90
2023-05-09T07:04:23.558Z,21.90
2023-05-09T07:06:51.173Z,22.00
2023-05-09T07:09:20.751Z,22.00
2023-05-09T07:11:48.001Z,22.10
2023-05-09T07:14:15.277Z,22.20
2023-05-09T07:16:42.574Z,22.30
2023-05-09T07:19:09.945Z,22.40
2023-05-09T07:21:37.474Z,22.50
2023-05-09T07:24:05.042Z,22.60
2023-05-09T07:26:32.452Z,22.70
2023-05-09T07:28:59.720Z,22.80
2023-05-09T07:31:27.120Z,23.00
2023-05-09T07:33:54.502Z,23.10
2023-05-09T07:36:21.969Z,23.30
2023-05-09T07:38:53.570Z,23.50
2023-05-09T07:41:21.054Z,23.70
2023-05-09T07:43:48.489Z,24.00
2023-05-09T07:46:15.896Z,24.10
2023-05-09T07:48:43.817Z,24.30
2023-05-09T07:51:11.188Z,24.40
2023-05-09T07:53:38.451Z,24.40
2023-05-09T07:56:07.007Z,24.60
2023-05-09T07:58:34.379Z,24.60
2023-05-09T08:01:02.055Z,24.80
2023-05-09T08:03:32.165Z,24.80
2023-05-09T08:05:59.688Z,24.90
2023-05-09T08:08:30.561Z,25.00
2023-05-09T08:10:58.548Z,25.10
2023-05-09T08:13:26.495Z,25.20
2023-05-09T08:15:53.936Z,25.30
2023-05-09T08:18:21.358Z,25.40
2023-05-09T08:20:48.705Z,25.40
2023-05-09T08:23:15.921Z,25.50
2023-05-09T08:25:43.436Z,25.60
2023-05-09T08:28:10.984Z,25.70
2023-05-09T08:30:38.356Z,25.80
2023-05-09T08:33:05.650Z,25.80
2023-05-09T08:35:35.188Z,25.80
2023-05-09T08:38:02.652Z,25.80
2023-05-09T08:40:30.079Z,25.70
2023-05-09T08:42:57.580Z,25.70
2023-05-09T08:45:30.557Z,25.70
2023-05-09T08:47:59.366Z,25.60
2023-05-09T08:50:26.856Z,25.60
2023-05-09T08:52:54.675Z,25.60
2023-05-09T08:55:22.597Z,25.70
2023-05-09T08:57:54.894Z,25.70
2023-05-09T09:00:22.872Z,25.70
2023-05-09T09:02:51.262Z,25.80
2023-05-09T09:05:39.558Z,25.80
2023-05-09T09:08:09.218Z,25.70
2023-05-09T09:10:41.600Z,25.70
2023-05-09T09:13:10.836Z,25.60
2023-05-09T09:15:40.684Z,25.60
2023-05-09T09:18:10.422Z,25.40
2023-05-09T09:21:06.546Z,25.30
2023-05-09T09:23:34.330Z,25.20
2023-05-09T09:26:05.118Z,25.10
2023-05-09T09:28:34.707Z,25.10
2023-05-09T09:31:02.475Z,25.20
2023-05-09T09:33:30.262Z,25.20
2023-05-09T09:35:59.507Z,25.40
2023-05-09T09:38:27.167Z,25.40
2023-05-09T09:40:59.363Z,25.50
2023-05-09T09:43:32.035Z,25.60
2023-05-09T09:46:04.708Z,25.60
2023-05-09T09:48:35.215Z,25.70
2023-05-09T09:51:12.986Z,25.60
2023-05-09T09:54:02.853Z,25.60
2023-05-09T09:57:08.712Z,25.60
2023-05-09T09:59:35.990Z,25.70
2023-05-09T10:02:08.404Z,25.80
2023-05-09T10:04:39.345Z,25.80
2023-05-09T10:07:13.881Z,25.90
2023-05-09T10:09:44.194Z,26.00
2023-05-09T10:12:12.288Z,26.10
2023-05-09T10:14:43.659Z,26.10
2023-05-09T10:17:16.219Z,26.20
2023-05-09T10:19:48.011Z,26.30
2023-05-09T10:22:18.290Z,26.40
2023-05-09T10:25:06.987Z,26.50
2023-05-09T10:27:40.423Z,26.50
2023-05-09T10:30:14.121Z,26.50
2023-05-09T10:33:09.380Z,26.50
2023-05-09T10:35:50.337Z,26.50
2023-05-09T10:38:19.263Z,26.50
2023-05-09T10:40:48.385Z,26.50
2023-05-09T10:43:16.185Z,26.40
2023-05-09T10:46:04.191Z,26.30
2023-05-09T10:48:34.300Z,26.20
2023-05-09T10:51:06.209Z,26.20
2023-05-09T10:53:48.854Z,26.10
2023-05-09T10:56:40.110Z,26.10
2023-05-09T10:59:37.932Z,26.10
2023-05-09T11:02:11.718Z,26.20
2023-05-09T11:04:40.777Z,26.30
2023-05-09T11:07:27.690Z,26.40
2023-05-09T11:10:18.678Z,26.40
2023-05-09T11:13:00.734Z,26.50
2023-05-09T11:15:29.245Z,26.60
2023-05-09T11:18:11.168Z,26.60
2023-05-09T11:20:48.437Z,26.70
2023-05-09T11:23:27.214Z,26.60
2023-05-09T11:26:05.751Z,26.60
2023-05-09T11:28:38.991Z,26.50
2023-05-09T11:31:11.574Z,26.40
2023-05-09T11:33:40.404Z,26.20
2023-05-09T11:36:28.214Z,26.00
2023-05-09T11:39:08.270Z,25.80
2023-05-09T11:41:47.339Z,25.70
2023-05-09T11:44:21.089Z,25.60
2023-05-09T11:46:50.066Z,25.50
2023-05-09T11:49:19.809Z,25.40
2023-05-09T11:51:47.495Z,25.40
2023-05-09T11:54:15.268Z,25.30
2023-05-09T11:56:43.483Z,25.20
2023-05-09T11:59:13.422Z,25.10
2023-05-09T12:01:40.897Z,24.90
2023-05-09T12:04:09.258Z,24.80
2023-05-09T12:06:37.864Z,24.60
2023-05-09T12:09:05.334Z,24.50
2023-05-09T12:11:32.623Z,24.30
2023-05-09T12:14:00.088Z,24.20
2023-05-09T12:16:27.692Z,24.00
2023-05-09T12:18:55.192Z,23.90
2023-05-09T12:21:23.108Z,23.70
2023-05-09T12:23:52.539Z,23.60
2023-05-09T12:26:22.992Z,23.40
2023-05-09T12:28:52.118Z,23.30
2023-05-09T12:31:19.741Z,23.20
2023-05-09T12:33:47.480Z,23.20
2023-05-09T12:36:16.202Z,23.10
2023-05-09T12:38:56.798Z,23.10
2023-05-09T12:43:55.733Z,23.00
2023-05-09T12:46:23.179Z,23.00
2023-05-09T12:48:50.602Z,23.00
2023-05-09T12:51:22.325Z,23.00
2023-05-09T12:53:49.875Z,23.00
2023-05-09T12:56:23.691Z,22.90
2023-05-09T12:59:15.510Z,22.90
2023-05-09T13:01:42.827Z,22.80
2023-05-09T13:04:12.641Z,22.80
2023-05-09T13:06:54.249Z,22.70
2023-05-09T13:09:23.442Z,22.70
2023-05-09T13:11:52.948Z,22.60
2023-05-09T13:15:17.359Z,22.50
2023-05-09T13:18:21.671Z,22.40
2023-05-09T13:20:53.120Z,22.30
2023-05-09T13:23:20.778Z,22.20
2023-05-09T13:25:48.586Z,22.00
2023-05-09T13:28:27.132Z,21.90
2023-05-09T13:31:04.998Z,21.70
2023-05-09T13:33:33.292Z,21.60
2023-05-09T13:36:01.001Z,21.50
2023-05-09T13:38:31.331Z,21.40
2023-05-09T13:41:00.064Z,21.30
2023-05-09T13:43:28.490Z,21.20
2023-05-09T13:45:58.165Z,21.10
2023-05-09T13:48:28.951Z,21.00
2023-05-09T13:50:57.929Z,20.90
2023-05-09T13:53:25.305Z,20.80
2023-05-09T13:55:55.089Z,20.70
2023-05-09T13:58:25.827Z,20.70
2023-05-09T14:00:56.270Z,20.60
2023-05-09T14:06:10.655Z,20.50
2023-05-09T14:08:45.260Z,20.50
2023-05-09T14:11:12.861Z,20.50
2023-05-09T14:13:44.602Z,20.50
2023-05-09T14:16:12.150Z,20.60
2023-05-09T14:18:42.913Z,20.60
2023-05-09T14:21:29.444Z,20.60
2023-05-09T14:23:56.894Z,20.60
2023-05-09T14:26:26.908Z,20.70
2023-05-09T14:29:33.219Z,20.60
2023-05-09T14:32:01.229Z,20.60
2023-05-09T14:34:31.218Z,20.60
2023-05-09T14:36:58.724Z,20.60
2023-05-09T14:39:29.357Z,20.60
2023-05-09T14:41:57.144Z,20.50
2023-05-09T14:44:25.345Z,20.50
2023-05-09T14:46:52.842Z,20.50
2023-05-09T14:49:20.572Z,20.40
2023-05-09T14:51:48.716Z,20.40
2023-05-09T14:54:16.275Z,20.40
2023-05-09T14:56:44.932Z,20.40
2023-05-09T14:59:12.296Z,20.30
2023-05-09T15:01:39.894Z,20.30
2023-05-09T15:04:31.092Z,20.20
2023-05-09T15:06:59.264Z,20.20
2023-05-09T15:09:34.771Z,20.10
2023-05-09T15:12:02.229Z,20.00
2023-05-09T15:14:29.681Z,19.90
2023-05-09T15:17:09.392Z,19.90
2023-05-09T15:19:38.171Z,19.80
2023-05-09T15:22:06.297Z,19.80
2023-05-09T15:24:33.857Z,19.70
2023-05-09T15:27:43.042Z,19.70
2023-05-09T15:30:11.261Z,19.60
2023-05-09T15:36:41.701Z,19.60
2023-05-09T15:39:10.085Z,19.50
2023-05-09T15:41:37.398Z,19.50
2023-05-09T15:44:05.004Z,19.50
2023-05-09T15:46:32.827Z,19.40
2023-05-09T15:49:02.654Z,19.40
2023-05-09T15:51:33.539Z,19.40
2023-05-09T15:54:01.390Z,19.40
2023-05-09T15:56:28.981Z,19.40
2023-05-09T15:59:03.003Z,19.40
2023-05-09T16:01:30.567Z,19.40
2023-05-09T16:04:01.802Z,19.40
2023-05-09T16:06:29.626Z,19.40
2023-05-09T16:09:43.667Z,19.40
2023-05-09T16:12:13.910Z,19.40
2023-05-09T16:14:44.844Z,19.40
2023-05-09T16:17:17.305Z,19.40
2023-05-09T16:19:45.201Z,19.40
2023-05-09T16:22:13.208Z,19.40
2023-05-09T16:24:45.934Z,19.40
2023-05-09T16:27:14.715Z,19.40
2023-05-09T16:29:45.475Z,19.40
2023-05-09T16:32:13.625Z,19.40
2023-05-09T16:34:41.409Z,19.40
2023-05-09T16:37:16.323Z,19.40
2023-05-09T16:39:44.061Z,19.40
2023-05-09T16:42:14.074Z,19.40
2023-05-09T16:44:44.306Z,19.40
2023-05-09T16:47:25.633Z,19.40
2023-05-09T16:49:55.564Z,19.40
2023-05-09T16:52:25.799Z,19.40
2023-05-09T16:54:55.014Z,19.40
2023-05-09T16:57:22.944Z,19.30
2023-05-09T17:00:01.226Z,19.30
2023-05-09T17:02:29.097Z,19.30
2023-05-09T17:04:58.913Z,19.30
2023-05-09T17:07:29.480Z,19.20
2023-05-09T17:09:57.066Z,19.20
2023-05-09T17:12:25.786Z,19.20
2023-05-09T17:14:56.276Z,19.20
2023-05-09T17:17:27.661Z,19.20
2023-05-09T17:19:55.485Z,19.20
2023-05-09T17:22:23.492Z,19.20
2023-05-09T17:24:50.865Z,19.10
2023-05-09T17:27:18.557Z,19.10
2023-05-09T17:29:46.227Z,19.10
2023-05-09T17:32:22.779Z,19.10
2023-05-09T17:34:57.456Z,19.10
2023-05-09T17:37:26.052Z,19.10
2023-05-09T17:39:53.577Z,19.00
2023-05-09T17:42:58.538Z,19.00
2023-05-09T17:45:26.099Z,19.00
2023-05-09T17:47:54.140Z,19.00
2023-05-09T17:50:21.714Z,18.90
2023-05-09T17:52:49.774Z,18.90
2023-05-09T17:55:17.253Z,18.90
2023-05-09T17:57:44.851Z,18.80
2023-05-09T18:00:13.115Z,18.80
2023-05-09T18:02:44.092Z,18.70
2023-05-09T18:05:11.531Z,18.60
2023-05-09T18:07:40.552Z,18.50
2023-05-09T18:10:09.730Z,18.40
2023-05-09T18:12:37.487Z,18.30
2023-05-09T18:15:06.179Z,18.30
2023-05-09T18:17:33.530Z,18.20
2023-05-09T18:20:04.999Z,18.10
2023-05-09T18:22:34.650Z,18.00
2023-05-09T18:25:02.198Z,18.00
2023-05-09T18:27:29.536Z,17.90
2023-05-09T18:29:57.218Z,17.90
2023-05-09T18:32:27.781Z,17.80
2023-05-09T18:34:58.061Z,17.80
2023-05-09T18:37:28.244Z,17.80
2023-05-09T18:39:58.656Z,17.70
2023-05-09T18:42:26.179Z,17.70
2023-05-09T18:44:53.406Z,17.70
2023-05-09T18:47:20.878Z,17.70
2023-05-09T18:49:48.322Z,17.70
2023-05-09T18:52:18.960Z,17.60
2023-05-09T18:54:46.279Z,17.70
2023-05-09T18:57:13.574Z,17.60
2023-05-09T18:59:43.451Z,17.60
2023-05-09T19:02:10.810Z,17.60
2023-05-09T19:04:38.317Z,17.60
2023-05-09T19:07:05.804Z,17.60
2023-05-09T19:09:33.865Z,17.60
2023-05-09T19:12:04.908Z,17.60
2023-05-09T19:14:32.613Z,17.60
2023-05-09T19:17:06.484Z,17.60
2023-05-09T19:19:34.762Z,17.50
2023-05-09T19:22:02.370Z,17.50
2023-05-09T19:24:32.992Z,17.50
2023-05-09T19:27:00.437Z,17.50
2023-05-09T19:29:28.584Z,17.50
2023-05-09T19:31:56.505Z,17.50
2023-05-09T19:34:24.852Z,17.50
2023-05-09T19:36:52.355Z,17.50
2023-05-09T19:39:19.864Z,17.50
2023-05-09T19:41:47.276Z,17.50
2023-05-09T19:44:17.577Z,17.50
2023-05-09T19:46:45.071Z,17.50
2023-05-09T19:49:13.029Z,17.50
2023-05-09T19:51:40.783Z,17.50
2023-05-09T19:54:08.863Z,17.40
2023-05-09T19:56:39.033Z,17.40
2023-05-09T19:59:06.593Z,17.40
2023-05-09T20:01:37.411Z,17.40
2023-05-09T20:04:05.228Z,17.40
2023-05-09T20:06:32.812Z,17.40
2023-05-09T20:09:02.601Z,17.40
2023-05-09T20:11:29.939Z,17.40
2023-05-09T20:14:00.712Z,17.40
2023-05-09T20:16:31.425Z,17.40
2023-05-09T20:18:59.855Z,17.40
2023-05-09T20:21:28.138Z,17.40
2023-05-09T20:23:55.457Z,17.40
2023-05-09T20:26:25.985Z,17.40
2023-05-09T20:28:59.164Z,17.40
2023-05-09T20:31:26.626Z,17.30
2023-05-09T20:33:54.891Z,17.30
2023-05-09T20:36:22.400Z,17.40
2023-05-09T20:38:49.708Z,17.40
2023-05-09T20:41:19.487Z,17.30
2023-05-09T20:43:47.326Z,17.30
2023-05-09T20:46:17.550Z,17.30
2023-05-09T20:48:44.932Z,17.30
2023-05-09T20:51:15.138Z,17.30
2023-05-09T20:53:44.934Z,17.30
2023-05-09T20:56:12.426Z,17.30
2023-05-09T20:58:39.766Z,17.30
2023-05-09T21:01:07.299Z,17.30
2023-05-09T21:03:34.922Z,17.30
2023-05-09T21:06:02.483Z,17.30
2023-05-09T21:08:29.793Z,17.30
2023-05-09T21:11:00.580Z,17.30
2023-05-09T21:13:31.268Z,17.30
2023-05-09T21:15:58.676Z,17.30
2023-05-09T21:18:28.997Z,17.30
2023-05-09T21:20:56.418Z,17.30
2023-05-09T21:23:23.761Z,17.30
2023-05-09T21:25:50.997Z,17.30
2023-05-09T21:28:18.481Z,17.30
2023-05-09T21:30:52.525Z,17.30
2023-05-09T21:33:22.925Z,17.30
2023-05-09T21:35:50.427Z,17.30
2023-05-09T21:38:17.782Z,17.30
2023-05-09T21:40:45.036Z,17.30
2023-05-09T21:43:12.414Z,17.20
2023-05-09T21:45:39.767Z,17.20
2023-05-09T21:48:07.228Z,17.20
2023-05-09T21:50:34.706Z,17.10
2023-05-09T21:53:02.233Z,17.10
2023-05-09T21:55:29.701Z,17.10
2023-05-09T21:57:57.026Z,17.10
2023-05-09T22:00:24.948Z,17.00
2023-05-09T22:02:52.792Z,17.00
2023-05-09T22:05:20.412Z,17.00
2023-05-09T22:07:47.589Z,17.00
2023-05-09T22:10:15.310Z,17.00
2023-05-09T22:12:43.106Z,17.00
2023-05-09T22:15:13.411Z,17.00
2023-05-09T22:17:40.744Z,17.00
2023-05-09T22:20:09.510Z,17.00
2023-05-09T22:22:37.116Z,17.00
2023-05-09T22:25:05.713Z,17.00
2023-05-09T22:27:33.085Z,17.00
2023-05-09T22:30:00.471Z,17.10
2023-05-09T22:32:28.280Z,17.10
2023-05-09T22:34:55.826Z,17.10
2023-05-09T22:37:23.076Z,17.10
2023-05-09T22:39:50.381Z,17.10
2023-05-09T22:42:20.165Z,17.10
2023-05-09T22:44:49.908Z,17.10
2023-05-09T22:47:17.283Z,17.10
2023-05-09T22:49:45.879Z,17.10
2023-05-09T22:52:13.727Z,17.10
2023-05-09T22:54:41.148Z,17.10
2023-05-09T22:57:08.716Z,17.10
2023-05-09T22:59:37.116Z,17.10
2023-05-09T23:02:05.202Z,17.10
2023-05-09T23:04:32.600Z,17.10
2023-05-09T23:07:00.004Z,17.10
2023-05-09T23:09:27.391Z,17.10
2023-05-09T23:11:55.235Z,17.10
2023-05-09T23:14:22.508Z,17.10
2023-05-09T23:16:50.891Z,17.00
2023-05-09T23:19:18.151Z,17.00
2023-05-09T23:21:45.576Z,17.00
2023-05-09T23:24:12.804Z,17.00
2023-05-09T23:26:40.089Z,17.00
2023-05-09T23:29:07.472Z,17.00
2023-05-09T23:31:34.894Z,17.00
2023-05-09T23:34:02.444Z,17.00
2023-05-09T23:36:29.760Z,17.00
2023-05-09T23:38:57.694Z,16.90
2023-05-09T23:41:25.031Z,16.90
2023-05-09T23:43:52.480Z,16.90
2023-05-09T23:46:19.952Z,16.90
2023-05-09T23:48:47.248Z,16.90
2023-05-09T23:51:14.685Z,16.90
2023-05-09T23:53:42.006Z,16.90
2023-05-09T23:56:09.793Z,16.90
2023-05-09T23:58:37.020Z,16.90
